createdAt,value
2024-04-18T00:00:54.445Z,27.41
2024-04-18T00:01:54.397Z,27.41
2024-04-18T00:02:54.370Z,27.41
2024-04-18T00:03:54.504Z,27.41
2024-04-18T00:04:54.461Z,27.43
2024-04-18T00:05:54.396Z,27.41
2024-04-18T00:06:54.457Z,27.40
2024-04-18T00:07:54.382Z,27.41
2024-04-18T00:08:54.359Z,27.41
2024-04-18T00:09:54.367Z,27.40
2024-04-18T00:10:54.415Z,27.40
2024-04-18T00:11:54.352Z,27.41
2024-04-18T00:12:54.347Z,27.41
2024-04-18T00:13:55.075Z,27.40
2024-04-18T00:14:54.344Z,27.41
2024-04-18T00:15:54.421Z,27.41
2024-04-18T00:16:54.325Z,27.44
2024-04-18T00:17:54.747Z,27.41
2024-04-18T00:18:54.384Z,27.41
2024-04-18T00:19:54.335Z,27.41
2024-04-18T00:20:54.332Z,27.41
2024-04-18T00:21:54.326Z,27.40
2024-04-18T00:22:54.336Z,27.38
2024-04-18T00:23:54.316Z,27.40
2024-04-18T00:24:54.413Z,27.43
2024-04-18T00:25:54.291Z,27.41
2024-04-18T00:26:54.282Z,27.40
2024-04-18T00:27:54.288Z,27.40
2024-04-18T00:28:54.284Z,27.41
2024-04-18T00:29:54.285Z,27.38
2024-04-18T00:30:54.389Z,27.38
2024-04-18T00:31:54.346Z,27.41
2024-04-18T00:32:54.367Z,27.43
2024-04-18T00:33:54.387Z,27.38
2024-04-18T00:34:54.328Z,27.40
2024-04-18T00:35:54.347Z,27.40
2024-04-18T00:36:54.341Z,27.41
2024-04-18T00:37:54.346Z,27.38
2024-04-18T00:38:54.479Z,27.41
2024-04-18T00:39:54.407Z,27.43
2024-04-18T00:40:54.374Z,27.37
2024-04-18T00:41:54.366Z,27.41
2024-04-18T00:42:54.377Z,27.40
2024-04-18T00:43:54.355Z,27.38
2024-04-18T00:44:54.347Z,27.40
2024-04-18T00:45:54.424Z,27.40
2024-04-18T00:46:54.352Z,27.40
2024-04-18T00:47:54.536Z,27.38
2024-04-18T00:48:54.461Z,27.40
2024-04-18T00:49:54.359Z,27.41
2024-04-18T00:50:54.377Z,27.38
2024-04-18T00:51:54.367Z,27.41
2024-04-18T00:52:54.383Z,27.43
2024-04-18T00:53:54.366Z,27.43
2024-04-18T00:54:54.471Z,27.41
2024-04-18T00:55:54.394Z,27.40
2024-04-18T00:56:54.396Z,27.40
2024-04-18T00:57:54.405Z,27.43
2024-04-18T00:58:54.427Z,27.40
2024-04-18T00:59:54.448Z,27.40
2024-04-18T01:00:54.567Z,27.40
2024-04-18T01:01:54.471Z,27.40
2024-04-18T01:02:54.462Z,27.40
2024-04-18T01:03:54.621Z,27.40
2024-04-18T01:04:54.508Z,27.40
2024-04-18T01:05:54.491Z,27.38
2024-04-18T01:06:54.508Z,27.38
2024-04-18T01:07:54.483Z,27.38
2024-04-18T01:08:54.484Z,27.38
2024-04-18T01:09:54.501Z,27.36
2024-04-18T01:10:54.485Z,27.34
2024-04-18T01:11:54.564Z,27.37
2024-04-18T01:12:54.514Z,27.36
2024-04-18T01:13:54.490Z,27.38
2024-04-18T01:14:54.499Z,27.37
2024-04-18T01:15:54.547Z,27.38
2024-04-18T01:16:54.513Z,27.37
2024-04-18T01:17:54.680Z,27.38
2024-04-18T01:18:54.544Z,27.38
2024-04-18T01:19:54.526Z,27.38
2024-04-18T01:20:54.541Z,27.38
2024-04-18T01:21:54.587Z,27.37
2024-04-18T01:22:54.546Z,27.37
2024-04-18T01:23:54.571Z,27.37
2024-04-18T01:24:54.553Z,27.37
2024-04-18T01:25:54.536Z,27.38
2024-04-18T01:26:54.550Z,27.34
2024-04-18T01:27:54.526Z,27.37
2024-04-18T01:28:54.522Z,27.34
2024-04-18T01:29:54.554Z,27.33
2024-04-18T01:30:54.570Z,27.36
2024-04-18T01:31:54.547Z,27.34
2024-04-18T01:32:54.609Z,27.36
2024-04-18T01:33:54.580Z,27.33
2024-04-18T01:34:54.524Z,27.34
2024-04-18T01:35:54.541Z,27.32
2024-04-18T01:36:54.595Z,27.34
2024-04-18T01:37:54.522Z,27.36
2024-04-18T01:38:54.553Z,27.34
2024-04-18T01:39:54.527Z,27.36
2024-04-18T01:40:54.476Z,27.34
2024-04-18T01:41:54.500Z,27.37
2024-04-18T01:42:54.494Z,27.37
2024-04-18T01:43:54.486Z,27.38
2024-04-18T01:44:54.501Z,27.38
2024-04-18T01:45:54.490Z,27.37
2024-04-18T01:46:54.471Z,27.38
2024-04-18T01:47:54.561Z,27.34
2024-04-18T01:48:54.499Z,27.36
2024-04-18T01:49:54.483Z,27.36
2024-04-18T01:50:54.482Z,27.36
2024-04-18T01:51:54.482Z,27.36
2024-04-18T01:52:54.443Z,27.37
2024-04-18T01:53:54.472Z,27.36
2024-04-18T01:54:54.448Z,27.33
2024-04-18T01:55:54.448Z,27.34
2024-04-18T01:56:54.414Z,27.36
2024-04-18T01:57:54.424Z,27.34
2024-04-18T01:58:54.419Z,27.34
2024-04-18T01:59:54.414Z,27.30
2024-04-18T02:00:54.456Z,27.34
2024-04-18T02:01:54.389Z,27.33
2024-04-18T02:02:54.432Z,27.34
2024-04-18T02:03:54.411Z,27.33
2024-04-18T02:04:54.391Z,27.37
2024-04-18T02:05:54.401Z,27.34
2024-04-18T02:06:54.422Z,27.36
2024-04-18T02:07:54.450Z,27.36
2024-04-18T02:08:54.427Z,27.34
2024-04-18T02:09:54.507Z,27.36
2024-04-18T02:10:54.498Z,27.34
2024-04-18T02:11:54.497Z,27.33
2024-04-18T02:12:54.517Z,27.33
2024-04-18T02:13:54.528Z,27.30
2024-04-18T02:14:54.512Z,27.32
2024-04-18T02:15:54.523Z,27.33
2024-04-18T02:16:54.546Z,27.34
2024-04-18T02:17:54.629Z,27.33
2024-04-18T02:18:54.677Z,27.34
2024-04-18T02:19:54.590Z,27.33
2024-04-18T02:20:54.613Z,27.34
2024-04-18T02:21:54.656Z,27.34
2024-04-18T02:22:54.628Z,27.36
2024-04-18T02:23:54.649Z,27.34
2024-04-18T02:24:54.624Z,27.34
2024-04-18T02:25:54.647Z,27.34
2024-04-18T02:26:54.643Z,27.36
2024-04-18T02:27:54.683Z,27.34
2024-04-18T02:28:54.604Z,27.34
2024-04-18T02:29:54.611Z,27.34
2024-04-18T02:30:54.675Z,27.36
2024-04-18T02:31:54.746Z,27.37
2024-04-18T02:32:54.639Z,27.34
2024-04-18T02:33:54.686Z,27.34
2024-04-18T02:34:54.603Z,27.34
2024-04-18T02:35:54.616Z,27.36
2024-04-18T02:36:54.660Z,27.36
2024-04-18T02:37:54.593Z,27.37
2024-04-18T02:38:54.640Z,27.36
2024-04-18T02:39:54.632Z,27.34
2024-04-18T02:40:54.642Z,27.36
2024-04-18T02:41:54.586Z,27.34
2024-04-18T02:42:54.604Z,27.30
2024-04-18T02:43:54.705Z,27.32
2024-04-18T02:44:54.583Z,27.32
2024-04-18T02:45:54.640Z,27.33
2024-04-18T02:46:54.603Z,27.34
2024-04-18T02:47:54.792Z,27.33
2024-04-18T02:48:54.670Z,27.34
2024-04-18T02:49:54.611Z,27.34
2024-04-18T02:50:54.646Z,27.33
2024-04-18T02:51:54.690Z,27.34
2024-04-18T02:52:54.656Z,27.33
2024-04-18T02:53:54.690Z,27.34
2024-04-18T02:54:54.719Z,27.34
2024-04-18T02:55:54.709Z,27.37
2024-04-18T02:56:54.680Z,27.34
2024-04-18T02:57:54.702Z,27.34
2024-04-18T02:58:54.688Z,27.36
2024-04-18T02:59:54.677Z,27.33
2024-04-18T03:00:54.718Z,27.33
2024-04-18T03:01:54.662Z,27.34
2024-04-18T03:02:54.786Z,27.33
2024-04-18T03:03:54.763Z,27.32
2024-04-18T03:04:54.656Z,27.30
2024-04-18T03:05:54.683Z,27.32
2024-04-18T03:06:54.647Z,27.29
2024-04-18T03:07:54.670Z,27.32
2024-04-18T03:08:54.649Z,27.30
2024-04-18T03:09:54.668Z,27.29
2024-04-18T03:10:54.657Z,27.30
2024-04-18T03:11:54.660Z,27.32
2024-04-18T03:12:54.668Z,27.33
2024-04-18T03:13:54.648Z,27.30
2024-04-18T03:14:54.644Z,27.32
2024-04-18T03:15:54.811Z,27.30
2024-04-18T03:16:54.635Z,27.30
2024-04-18T03:17:54.826Z,27.32
2024-04-18T03:18:54.695Z,27.29
2024-04-18T03:19:54.643Z,27.30
2024-04-18T03:20:54.644Z,27.29
2024-04-18T03:21:54.818Z,27.26
2024-04-18T03:22:54.676Z,27.22
2024-04-18T03:23:54.699Z,27.20
2024-04-18T03:24:54.752Z,27.16
2024-04-18T03:25:54.821Z,27.10
2024-04-18T03:26:54.816Z,27.09
2024-04-18T03:27:54.858Z,27.06
2024-04-18T03:28:54.824Z,27.03
2024-04-18T03:29:54.828Z,26.99
2024-04-18T03:30:54.851Z,26.98
2024-04-18T03:31:54.864Z,26.96
2024-04-18T03:32:54.910Z,26.96
2024-04-18T03:33:54.903Z,26.93
2024-04-18T03:34:54.856Z,26.89
2024-04-18T03:35:54.877Z,26.88
2024-04-18T03:36:54.923Z,26.86
2024-04-18T03:37:54.892Z,26.85
2024-04-18T03:38:54.947Z,26.83
2024-04-18T03:39:55.040Z,26.83
2024-04-18T03:40:55.048Z,26.82
2024-04-18T03:41:55.163Z,26.79
2024-04-18T03:42:55.212Z,26.78
2024-04-18T03:43:55.260Z,26.78
2024-04-18T03:44:55.435Z,26.75
2024-04-18T03:45:55.408Z,26.75
2024-04-18T03:46:55.436Z,26.74
2024-04-18T03:47:55.608Z,26.74
2024-04-18T03:48:55.619Z,26.70
2024-04-18T03:49:55.653Z,26.70
2024-04-18T03:50:55.735Z,26.67
2024-04-18T03:51:55.844Z,26.64
2024-04-18T03:52:55.852Z,26.62
2024-04-18T03:53:55.941Z,26.61
2024-04-18T03:55:01.948Z,26.56
2024-04-18T03:55:57.018Z,26.54
2024-04-18T03:56:56.031Z,26.51
2024-04-18T03:57:56.071Z,26.50
2024-04-18T03:58:56.078Z,26.44
2024-04-18T03:59:56.043Z,26.44
2024-04-18T04:00:56.152Z,26.43
2024-04-18T04:01:56.054Z,26.38
2024-04-18T04:02:56.059Z,26.37
2024-04-18T04:03:56.212Z,26.34
2024-04-18T04:04:56.205Z,26.33
2024-04-18T04:05:56.297Z,26.31
2024-04-18T04:06:56.389Z,26.27
2024-04-18T04:07:56.418Z,26.24
2024-04-18T04:08:56.416Z,26.21
2024-04-18T04:09:56.522Z,26.19
2024-04-18T04:10:56.467Z,26.17
2024-04-18T04:11:56.471Z,26.14
2024-04-18T04:12:56.523Z,26.12
2024-04-18T04:14:00.236Z,26.08
2024-04-18T04:14:56.494Z,26.07
2024-04-18T04:15:56.534Z,26.04
2024-04-18T04:16:56.506Z,25.99
2024-04-18T04:17:56.609Z,25.97
2024-04-18T04:18:56.819Z,25.93
2024-04-18T04:19:56.547Z,25.92
2024-04-18T04:20:56.562Z,25.90
2024-04-18T04:21:56.645Z,25.87
2024-04-18T04:22:56.600Z,25.86
2024-04-18T04:23:56.610Z,25.86
2024-04-18T04:24:57.565Z,25.80
2024-04-18T04:25:56.609Z,25.78
2024-04-18T04:26:56.614Z,25.76
2024-04-18T04:27:56.697Z,25.75
2024-04-18T04:28:56.630Z,25.69
2024-04-18T04:29:56.644Z,25.68
2024-04-18T04:30:56.774Z,25.65
2024-04-18T04:31:56.742Z,25.65
2024-04-18T04:32:56.696Z,25.61
2024-04-18T04:33:56.703Z,25.61
2024-04-18T04:34:56.702Z,25.57
2024-04-18T04:35:56.715Z,25.53
2024-04-18T04:37:04.075Z,25.51
2024-04-18T04:38:04.044Z,25.49
2024-04-18T04:39:04.034Z,25.48
2024-04-18T04:40:04.051Z,25.46
2024-04-18T04:41:04.040Z,25.45
2024-04-18T04:42:04.044Z,25.42
2024-04-18T04:43:04.142Z,25.42
2024-04-18T04:44:04.064Z,25.40
2024-04-18T04:45:04.094Z,25.40
2024-04-18T04:46:04.056Z,25.38
2024-04-18T04:47:04.055Z,25.35
2024-04-18T04:48:04.116Z,25.32
2024-04-18T04:49:04.113Z,25.32
2024-04-18T04:50:04.061Z,25.32
2024-04-18T04:51:04.070Z,25.25
2024-04-18T04:52:04.094Z,25.25
2024-04-18T04:53:04.070Z,25.25
2024-04-18T04:54:04.050Z,25.24
2024-04-18T04:55:04.079Z,25.23
2024-04-18T04:56:04.123Z,25.20
2024-04-18T04:57:04.083Z,25.21
2024-04-18T04:58:04.086Z,25.18
2024-04-18T04:59:04.095Z,25.18
2024-04-18T05:00:04.164Z,25.17
2024-04-18T05:01:04.219Z,25.15
2024-04-18T05:02:04.118Z,25.15
2024-04-18T05:03:04.131Z,25.13
2024-04-18T05:04:04.155Z,25.13
2024-04-18T05:05:04.133Z,25.13
2024-04-18T05:06:04.135Z,25.11
2024-04-18T05:07:04.146Z,25.10
2024-04-18T05:08:04.168Z,25.07
2024-04-18T05:09:04.146Z,25.07
2024-04-18T05:10:04.201Z,25.07
2024-04-18T05:11:04.251Z,25.04
2024-04-18T05:12:04.183Z,25.06
2024-04-18T05:13:04.185Z,25.04
2024-04-18T05:14:04.196Z,25.04
2024-04-18T05:15:04.187Z,25.03
2024-04-18T05:16:04.293Z,25.00
2024-04-18T05:17:04.210Z,24.98
2024-04-18T05:18:04.301Z,25.00
2024-04-18T05:19:04.266Z,25.02
2024-04-18T05:20:04.280Z,24.98
2024-04-18T05:21:04.347Z,24.96
2024-04-18T05:22:04.280Z,24.94
2024-04-18T05:23:04.287Z,24.94
2024-04-18T05:24:04.308Z,24.93
2024-04-18T05:25:04.310Z,24.96
2024-04-18T05:26:04.332Z,24.91
2024-04-18T05:27:04.341Z,24.91
2024-04-18T05:28:04.377Z,24.91
2024-04-18T05:29:04.338Z,24.90
2024-04-18T05:30:04.558Z,24.89
2024-04-18T05:31:04.687Z,24.86
2024-04-18T05:32:04.391Z,24.87
2024-04-18T05:33:04.439Z,24.86
2024-04-18T05:34:04.531Z,24.89
2024-04-18T05:35:04.367Z,24.86
2024-04-18T05:36:04.756Z,24.89
2024-04-18T05:37:04.354Z,24.86
2024-04-18T05:38:04.350Z,24.84
2024-04-18T05:39:04.342Z,24.84
2024-04-18T05:40:04.468Z,24.84
2024-04-18T05:41:04.353Z,24.86
2024-04-18T05:42:04.375Z,24.84
2024-04-18T05:43:04.344Z,24.84
2024-04-18T05:44:04.390Z,24.84
2024-04-18T05:45:04.414Z,24.80
2024-04-18T05:46:04.757Z,24.84
2024-04-18T05:47:05.187Z,24.82
2024-04-18T05:48:04.560Z,24.83
2024-04-18T05:49:04.562Z,24.83
2024-04-18T05:50:04.574Z,24.83
2024-04-18T05:51:04.615Z,24.83
2024-04-18T05:52:04.650Z,24.84
2024-04-18T05:53:04.804Z,24.82
2024-04-18T05:54:04.716Z,24.82
2024-04-18T05:55:04.739Z,24.80
2024-04-18T05:56:04.807Z,24.80
2024-04-18T05:57:04.803Z,24.82
2024-04-18T05:58:04.863Z,24.83
2024-04-18T05:59:04.866Z,24.83
2024-04-18T06:00:04.882Z,24.83
2024-04-18T06:01:05.130Z,24.84
2024-04-18T06:02:04.982Z,24.84
2024-04-18T06:03:05.025Z,24.84
2024-04-18T06:04:05.103Z,24.83
2024-04-18T06:05:05.198Z,24.84
2024-04-18T06:06:05.082Z,24.82
2024-04-18T06:07:05.108Z,24.83
2024-04-18T06:08:05.142Z,24.86
2024-04-18T06:09:05.217Z,24.82
2024-04-18T06:10:05.248Z,24.84
2024-04-18T06:11:05.312Z,24.84
2024-04-18T06:12:05.270Z,24.84
2024-04-18T06:13:05.288Z,24.84
2024-04-18T06:14:06.169Z,24.87
2024-04-18T06:15:05.364Z,24.84
2024-04-18T06:16:05.481Z,24.87
2024-04-18T06:17:05.467Z,24.87
2024-04-18T06:18:05.496Z,24.90
2024-04-18T06:19:05.503Z,24.89
2024-04-18T06:20:05.558Z,24.87
2024-04-18T06:21:05.551Z,24.86
2024-04-18T06:22:05.561Z,24.84
2024-04-18T06:23:05.753Z,24.86
2024-04-18T06:24:05.545Z,24.86
2024-04-18T06:25:05.646Z,24.83
2024-04-18T06:26:05.581Z,24.84
2024-04-18T06:27:05.554Z,24.84
2024-04-18T06:28:05.593Z,24.86
2024-04-18T06:29:05.567Z,24.87
2024-04-18T06:30:05.566Z,24.89
2024-04-18T06:31:06.918Z,24.90
2024-04-18T06:32:05.598Z,24.89
2024-04-18T06:33:05.681Z,24.86
2024-04-18T06:34:05.817Z,24.87
2024-04-18T06:35:05.597Z,24.84
2024-04-18T06:36:05.605Z,24.83
2024-04-18T06:37:08.014Z,24.82
2024-04-18T06:38:05.877Z,24.82
2024-04-18T06:39:05.926Z,24.83
2024-04-18T06:40:05.974Z,24.84
2024-04-18T06:41:05.983Z,24.86
2024-04-18T06:42:06.014Z,24.83
2024-04-18T06:43:06.011Z,24.83
2024-04-18T06:44:06.116Z,24.83
2024-04-18T06:45:06.090Z,24.84
2024-04-18T06:46:06.129Z,24.84
2024-04-18T06:47:06.203Z,24.86
2024-04-18T06:48:06.299Z,24.84
2024-04-18T06:49:06.238Z,24.83
2024-04-18T06:50:06.244Z,24.84
2024-04-18T06:51:06.311Z,24.86
2024-04-18T06:52:06.325Z,24.87
2024-04-18T06:53:06.389Z,24.87
2024-04-18T06:54:06.431Z,24.89
2024-04-18T06:55:06.475Z,24.89
2024-04-18T06:56:06.491Z,24.91
2024-04-18T06:57:06.495Z,24.87
2024-04-18T06:58:06.599Z,24.90
2024-04-18T06:59:06.496Z,24.87
2024-04-18T07:00:06.529Z,24.90
2024-04-18T07:01:06.730Z,24.91
2024-04-18T07:02:06.511Z,24.90
2024-04-18T07:03:06.556Z,24.90
2024-04-18T07:04:06.632Z,24.94
2024-04-18T07:05:06.557Z,24.98
2024-04-18T07:06:06.489Z,25.03
2024-04-18T07:07:06.509Z,24.97
2024-04-18T07:08:07.276Z,24.97
2024-04-18T07:09:06.516Z,25.00
2024-04-18T07:10:06.526Z,25.03
2024-04-18T07:11:06.526Z,25.07
2024-04-18T07:12:06.486Z,25.11
2024-04-18T07:13:06.573Z,25.13
2024-04-18T07:14:06.531Z,25.14
2024-04-18T07:15:06.464Z,25.15
2024-04-18T07:16:06.461Z,25.11
2024-04-18T07:17:06.743Z,25.11
2024-04-18T07:18:06.604Z,25.11
2024-04-18T07:19:06.495Z,25.15
2024-04-18T07:20:06.515Z,25.15
2024-04-18T07:21:06.543Z,25.14
2024-04-18T07:22:06.620Z,25.17
2024-04-18T07:23:06.549Z,25.18
2024-04-18T07:24:06.521Z,25.25
2024-04-18T07:25:06.583Z,25.27
2024-04-18T07:26:06.507Z,25.32
2024-04-18T07:27:06.612Z,25.35
2024-04-18T07:28:06.499Z,25.42
2024-04-18T07:29:06.490Z,25.46
2024-04-18T07:30:06.520Z,25.48
2024-04-18T07:31:06.482Z,25.52
2024-04-18T07:32:06.470Z,25.57
2024-04-18T07:33:06.500Z,25.55
2024-04-18T07:34:06.479Z,25.53
2024-04-18T07:35:06.561Z,25.53
2024-04-18T07:36:06.454Z,25.55
2024-04-18T07:37:06.534Z,25.58
2024-04-18T07:38:06.466Z,25.62
2024-04-18T07:39:06.481Z,25.65
2024-04-18T07:40:06.530Z,25.65
2024-04-18T07:41:06.534Z,25.64
2024-04-18T07:42:06.542Z,25.68
2024-04-18T07:43:06.529Z,25.70
2024-04-18T07:44:06.524Z,25.69
2024-04-18T07:45:06.519Z,25.70
2024-04-18T07:46:06.570Z,25.72
2024-04-18T07:47:06.636Z,25.73
2024-04-18T07:48:06.721Z,25.76
2024-04-18T07:49:06.538Z,25.76
2024-04-18T07:50:06.499Z,25.79
2024-04-18T07:51:06.517Z,25.78
2024-04-18T07:52:12.499Z,25.76
2024-04-18T07:53:10.003Z,25.76
2024-04-18T07:54:06.555Z,25.78
2024-04-18T07:55:06.534Z,25.76
2024-04-18T07:56:06.930Z,25.76
2024-04-18T07:57:06.958Z,25.72
2024-04-18T07:58:07.541Z,25.72
2024-04-18T07:59:07.058Z,25.69
2024-04-18T08:00:07.319Z,25.69
2024-04-18T08:01:07.701Z,25.69
2024-04-18T08:02:08.561Z,25.69
2024-04-18T08:03:08.004Z,25.72
2024-04-18T08:04:27.110Z,25.69
2024-04-18T08:05:09.982Z,25.69
2024-04-18T08:06:09.325Z,25.66
2024-04-18T08:07:09.522Z,25.66
2024-04-18T08:08:10.470Z,25.65
2024-04-18T08:09:09.799Z,25.61
2024-04-18T08:10:10.541Z,25.61
2024-04-18T08:11:25.651Z,25.64
2024-04-18T08:13:10.407Z,25.62
2024-04-18T08:14:10.731Z,25.62
2024-04-18T08:15:11.177Z,25.68
2024-04-18T08:16:07.332Z,25.68
2024-04-18T08:17:06.493Z,25.69
2024-04-18T08:18:06.330Z,25.72
2024-04-18T08:19:06.315Z,25.72
2024-04-18T08:20:06.347Z,25.75
2024-04-18T08:21:06.377Z,25.78
2024-04-18T08:22:06.339Z,25.76
2024-04-18T08:23:06.609Z,25.76
2024-04-18T08:24:06.331Z,25.79
2024-04-18T08:25:07.223Z,25.82
2024-04-18T08:26:06.311Z,25.82
2024-04-18T08:27:06.414Z,25.83
2024-04-18T08:28:06.328Z,25.87
2024-04-18T08:29:06.336Z,25.87
2024-04-18T08:30:06.359Z,25.90
2024-04-18T08:31:06.335Z,25.86
2024-04-18T08:32:06.434Z,25.89
2024-04-18T08:33:06.418Z,25.89
2024-04-18T08:34:11.761Z,25.90
2024-04-18T08:35:07.330Z,25.90
2024-04-18T08:36:06.378Z,25.93
2024-04-18T08:37:07.144Z,25.90
2024-04-18T08:38:06.334Z,25.92
2024-04-18T08:39:06.393Z,25.92
2024-04-18T08:40:06.307Z,25.92
2024-04-18T08:41:07.374Z,25.96
2024-04-18T08:42:06.395Z,25.97
2024-04-18T08:43:06.300Z,25.95
2024-04-18T08:44:06.343Z,25.97
2024-04-18T08:45:07.296Z,25.95
2024-04-18T08:46:07.700Z,25.97
2024-04-18T08:47:06.380Z,25.96
2024-04-18T08:48:06.517Z,25.96
2024-04-18T08:49:07.406Z,25.95
2024-04-18T08:50:06.351Z,25.95
2024-04-18T08:51:06.433Z,25.95
2024-04-18T08:52:06.775Z,25.93
2024-04-18T08:53:06.415Z,25.92
2024-04-18T08:54:06.648Z,25.92
2024-04-18T08:55:06.632Z,25.93
2024-04-18T08:56:06.603Z,25.90
2024-04-18T08:57:06.600Z,25.90
2024-04-18T08:58:06.635Z,25.90
2024-04-18T08:59:06.735Z,25.85
2024-04-18T09:00:06.740Z,25.87
2024-04-18T09:01:06.731Z,25.89
2024-04-18T09:02:06.742Z,25.86
2024-04-18T09:03:06.839Z,25.85
2024-04-18T09:04:06.874Z,25.85
2024-04-18T09:05:06.833Z,25.83
2024-04-18T09:06:06.922Z,25.82
2024-04-18T09:07:06.935Z,25.80
2024-04-18T09:08:07.022Z,25.80
2024-04-18T09:09:06.968Z,25.79
2024-04-18T09:10:06.963Z,25.79
2024-04-18T09:11:07.111Z,25.78
2024-04-18T09:12:07.685Z,25.75
2024-04-18T09:13:07.645Z,25.76
2024-04-18T09:14:07.089Z,25.79
2024-04-18T09:15:07.179Z,25.78
2024-04-18T09:16:07.168Z,25.78
2024-04-18T09:17:07.139Z,25.79
2024-04-18T09:18:07.348Z,25.79
2024-04-18T09:19:08.687Z,25.83
2024-04-18T09:20:07.178Z,25.80
2024-04-18T09:21:07.133Z,25.82
2024-04-18T09:22:07.107Z,25.83
2024-04-18T09:23:07.124Z,25.83
2024-04-18T09:24:07.909Z,25.80
2024-04-18T09:25:07.106Z,25.80
2024-04-18T09:26:07.139Z,25.83
2024-04-18T09:27:07.160Z,25.86
2024-04-18T09:28:07.113Z,25.80
2024-04-18T09:29:07.104Z,25.82
2024-04-18T09:30:07.103Z,25.85
2024-04-18T09:31:07.199Z,25.86
2024-04-18T09:32:07.130Z,25.89
2024-04-18T09:33:07.903Z,25.89
2024-04-18T09:34:07.994Z,25.90
2024-04-18T09:35:07.067Z,25.92
2024-04-18T09:36:07.115Z,25.93
2024-04-18T09:37:07.036Z,25.95
2024-04-18T09:38:10.212Z,25.97
2024-04-18T09:39:07.765Z,26.00
2024-04-18T09:40:07.112Z,25.99
2024-04-18T09:41:06.987Z,26.01
2024-04-18T09:42:07.288Z,26.01
2024-04-18T09:43:07.088Z,26.01
2024-04-18T09:44:06.944Z,26.04
2024-04-18T09:45:06.973Z,26.03
2024-04-18T09:46:06.916Z,26.06
2024-04-18T09:47:06.939Z,26.10
2024-04-18T09:48:07.075Z,26.10
2024-04-18T09:49:06.983Z,26.08
2024-04-18T09:50:06.890Z,26.12
2024-04-18T09:51:06.893Z,26.14
2024-04-18T09:52:06.854Z,26.14
2024-04-18T09:53:06.859Z,26.16
2024-04-18T09:54:06.860Z,26.16
2024-04-18T09:55:06.799Z,26.16
2024-04-18T09:56:06.802Z,26.17
2024-04-18T09:57:06.803Z,26.21
2024-04-18T09:58:06.759Z,26.20
2024-04-18T09:59:06.796Z,26.24
2024-04-18T10:00:06.860Z,26.27
2024-04-18T10:01:06.895Z,26.30
2024-04-18T10:02:07.671Z,26.30
2024-04-18T10:03:07.026Z,26.30
2024-04-18T10:04:07.122Z,26.33
2024-04-18T10:05:07.026Z,26.33
2024-04-18T10:06:07.111Z,26.35
2024-04-18T10:07:07.329Z,26.37
2024-04-18T10:08:07.120Z,26.41
2024-04-18T10:09:07.309Z,26.41
2024-04-18T10:10:07.221Z,26.45
2024-04-18T10:11:07.262Z,26.47
2024-04-18T10:12:07.319Z,26.50
2024-04-18T10:13:07.338Z,26.50
2024-04-18T10:14:07.395Z,26.52
2024-04-18T10:15:07.481Z,26.55
2024-04-18T10:16:07.472Z,26.59
2024-04-18T10:17:07.611Z,26.58
2024-04-18T10:18:07.686Z,26.59
2024-04-18T10:19:07.653Z,26.62
2024-04-18T10:20:07.672Z,26.65
2024-04-18T10:21:07.776Z,26.62
2024-04-18T10:22:17.604Z,26.64
2024-04-18T10:23:08.702Z,26.64
2024-04-18T10:24:07.661Z,26.67
2024-04-18T10:25:07.606Z,26.68
2024-04-18T10:26:07.593Z,26.67
2024-04-18T10:27:07.598Z,26.72
2024-04-18T10:28:07.559Z,26.71
2024-04-18T10:29:07.520Z,26.75
2024-04-18T10:30:07.547Z,26.77
2024-04-18T10:31:08.723Z,26.81
2024-04-18T10:32:07.487Z,26.81
2024-04-18T10:33:07.562Z,26.82
2024-04-18T10:34:07.428Z,26.83
2024-04-18T10:35:07.403Z,26.85
2024-04-18T10:36:07.407Z,26.88
2024-04-18T10:37:07.802Z,26.85
2024-04-18T10:38:07.410Z,26.85
2024-04-18T10:39:07.531Z,26.86
2024-04-18T10:40:07.447Z,26.85
2024-04-18T10:41:07.484Z,26.68
2024-04-18T10:42:07.612Z,26.55
2024-04-18T10:43:09.278Z,26.45
2024-04-18T10:44:07.607Z,26.35
2024-04-18T10:45:07.691Z,26.27
2024-04-18T10:46:07.739Z,26.20
2024-04-18T10:47:07.908Z,26.16
2024-04-18T10:48:07.980Z,26.07
2024-04-18T10:49:07.992Z,25.92
2024-04-18T10:50:08.784Z,25.87
2024-04-18T10:51:08.093Z,25.76
2024-04-18T10:52:08.088Z,25.62
2024-04-18T10:53:08.150Z,25.53
2024-04-18T10:54:08.174Z,25.51
2024-04-18T10:55:08.145Z,25.37
2024-04-18T10:56:08.336Z,25.18
2024-04-18T10:57:08.191Z,25.14
2024-04-18T10:58:08.305Z,25.03
2024-04-18T10:59:08.267Z,25.03
2024-04-18T11:00:08.396Z,24.96
2024-04-18T11:01:08.427Z,24.91
2024-04-18T11:02:08.504Z,24.90
2024-04-18T11:03:08.573Z,24.91
2024-04-18T11:04:08.459Z,24.93
2024-04-18T11:05:08.484Z,24.87
2024-04-18T11:06:08.512Z,24.86
2024-04-18T11:07:08.528Z,24.82
2024-04-18T11:08:08.512Z,24.79
2024-04-18T11:09:08.525Z,24.80
2024-04-18T11:10:08.539Z,24.80
2024-04-18T11:11:08.552Z,24.73
2024-04-18T11:12:08.659Z,24.49
2024-04-18T11:13:08.619Z,24.51
2024-04-18T11:14:10.218Z,24.38
2024-04-18T11:15:08.697Z,24.39
2024-04-18T11:16:08.688Z,24.36
2024-04-18T11:17:08.752Z,24.29
2024-04-18T11:18:08.899Z,24.28
2024-04-18T11:19:08.838Z,24.14
2024-04-18T11:20:08.824Z,24.20
2024-04-18T11:21:08.854Z,24.11
2024-04-18T11:22:09.039Z,24.08
2024-04-18T11:23:14.929Z,24.11
2024-04-18T11:24:10.004Z,24.14
2024-04-18T11:25:08.970Z,24.22
2024-04-18T11:26:09.162Z,24.29
2024-04-18T11:27:09.077Z,24.39
2024-04-18T11:28:09.035Z,24.51
2024-04-18T11:29:09.725Z,24.59
2024-04-18T11:30:09.122Z,24.69
2024-04-18T11:31:09.207Z,24.77
2024-04-18T11:32:09.154Z,24.89
2024-04-18T11:33:09.198Z,24.94
2024-04-18T11:34:09.131Z,25.00
2024-04-18T11:35:16.762Z,25.11
2024-04-18T11:36:10.168Z,25.17
2024-04-18T11:37:09.194Z,25.24
2024-04-18T11:38:09.168Z,25.32
2024-04-18T11:39:09.168Z,25.42
2024-04-18T11:40:09.137Z,25.48
2024-04-18T11:41:09.220Z,25.57
2024-04-18T11:42:09.272Z,25.61
2024-04-18T11:43:09.123Z,25.65
2024-04-18T11:44:09.112Z,25.75
2024-04-18T11:45:09.163Z,25.82
2024-04-18T11:46:09.088Z,25.86
2024-04-18T11:47:09.102Z,25.89
2024-04-18T11:48:09.269Z,25.95
2024-04-18T11:49:09.170Z,26.00
2024-04-18T11:50:09.121Z,26.04
2024-04-18T11:51:09.043Z,26.07
2024-04-18T11:52:09.018Z,26.14
2024-04-18T11:53:09.002Z,26.16
2024-04-18T11:54:09.053Z,26.20
2024-04-18T11:55:09.007Z,26.23
2024-04-18T11:56:08.955Z,26.27
2024-04-18T11:57:09.004Z,26.31
2024-04-18T11:58:08.962Z,26.31
2024-04-18T11:59:08.919Z,26.35
2024-04-18T12:00:08.935Z,26.40
2024-04-18T12:01:08.908Z,26.41
2024-04-18T12:02:08.908Z,26.44
2024-04-18T12:03:08.955Z,26.48
2024-04-18T12:04:09.096Z,26.50
2024-04-18T12:05:08.907Z,26.52
2024-04-18T12:06:08.952Z,26.54
2024-04-18T12:07:08.914Z,26.58
2024-04-18T12:08:09.039Z,26.58
2024-04-18T12:09:09.058Z,26.62
2024-04-18T12:10:09.073Z,26.65
2024-04-18T12:11:09.130Z,26.70
2024-04-18T12:12:09.207Z,26.70
2024-04-18T12:13:09.214Z,26.72
2024-04-18T12:14:09.856Z,26.72
2024-04-18T12:15:09.474Z,26.74
2024-04-18T12:16:09.476Z,26.78
2024-04-18T12:17:09.439Z,26.82
2024-04-18T12:18:09.507Z,26.78
2024-04-18T12:19:09.550Z,26.82
2024-04-18T12:20:09.584Z,26.82
2024-04-18T12:21:09.652Z,26.82
2024-04-18T12:22:09.698Z,26.83
2024-04-18T12:23:09.763Z,26.86
2024-04-18T12:24:09.835Z,26.86
2024-04-18T12:25:09.814Z,26.88
2024-04-18T12:26:09.864Z,26.88
2024-04-18T12:27:10.037Z,26.90
2024-04-18T12:28:09.950Z,26.93
2024-04-18T12:29:10.002Z,26.95
2024-04-18T12:30:10.031Z,26.99
2024-04-18T12:31:10.050Z,26.99
2024-04-18T12:32:10.127Z,27.02
2024-04-18T12:33:10.166Z,27.05
2024-04-18T12:34:10.156Z,27.06
2024-04-18T12:35:10.201Z,27.07
2024-04-18T12:36:10.257Z,27.10
2024-04-18T12:37:10.246Z,27.10
2024-04-18T12:38:10.272Z,27.13
2024-04-18T12:39:10.360Z,27.14
2024-04-18T12:40:10.370Z,27.16
2024-04-18T12:41:10.430Z,27.16
2024-04-18T12:42:10.437Z,27.19
2024-04-18T12:43:10.423Z,27.22
2024-04-18T12:44:10.456Z,27.20
2024-04-18T12:45:10.580Z,27.23
2024-04-18T12:46:17.495Z,27.23
2024-04-18T12:47:11.550Z,27.29
2024-04-18T12:48:10.593Z,27.27
2024-04-18T12:49:10.702Z,27.33
2024-04-18T12:50:10.485Z,27.34
2024-04-18T12:51:10.413Z,27.36
2024-04-18T12:52:10.397Z,27.38
2024-04-18T12:53:10.382Z,27.40
2024-04-18T12:54:10.499Z,27.41